sensor_id;sensor_type;location;lat;lon;timestamp;pressure;altitude;pressure_sealevel;temperature;humidity
24762;BME280;12865;51.934;10.330;2022-07-03T00:01:56;99373.38;;;19.40;62.60
24762;BME280;12865;51.934;10.330;2022-07-03T00:04:42;99370.22;;;19.37;62.93
24762;BME280;12865;51.934;10.330;2022-07-03T00:07:27;99371.44;;;19.34;63.18
24762;BME280;12865;51.934;10.330;2022-07-03T00:10:13;99370.03;;;19.38;61.86
24762;BME280;12865;51.934;10.330;2022-07-03T00:12:59;99371.69;;;19.39;61.81
24762;BME280;12865;51.934;10.330;2022-07-03T00:15:45;99366.53;;;19.44;61.58
24762;BME280;12865;51.934;10.330;2022-07-03T00:18:30;99363.41;;;19.41;62.02
24762;BME280;12865;51.934;10.330;2022-07-03T00:21:19;99366.28;;;19.39;62.06
24762;BME280;12865;51.934;10.330;2022-07-03T00:24:16;99365.19;;;19.34;62.29
24762;BME280;12865;51.934;10.330;2022-07-03T00:27:02;99357.94;;;19.34;62.12
24762;BME280;12865;51.934;10.330;2022-07-03T00:29:53;99354.16;;;19.35;62.73
24762;BME280;12865;51.934;10.330;2022-07-03T00:32:41;99348.91;;;19.27;63.85
24762;BME280;12865;51.934;10.330;2022-07-03T00:35:28;99350.78;;;19.27;63.47
24762;BME280;12865;51.934;10.330;2022-07-03T00:38:15;99341.72;;;19.34;62.47
24762;BME280;12865;51.934;10.330;2022-07-03T00:41:03;99339.63;;;19.36;62.17
24762;BME280;12865;51.934;10.330;2022-07-03T00:43:49;99335.19;;;19.29;62.26
24762;BME280;12865;51.934;10.330;2022-07-03T00:46:37;99336.72;;;19.38;61.93
24762;BME280;12865;51.934;10.330;2022-07-03T00:49:24;99338.34;;;19.32;62.49
24762;BME280;12865;51.934;10.330;2022-07-03T00:52:12;99336.91;;;19.36;62.38
24762;BME280;12865;51.934;10.330;2022-07-03T00:54:59;99334.22;;;19.36;62.84
24762;BME280;12865;51.934;10.330;2022-07-03T00:57:47;99337.56;;;19.38;63.21
24762;BME280;12865;51.934;10.330;2022-07-03T01:00:34;99333.59;;;19.34;63.89
24762;BME280;12865;51.934;10.330;2022-07-03T01:03:26;99332.16;;;19.38;63.63
24762;BME280;12865;51.934;10.330;2022-07-03T01:06:16;99330.78;;;19.28;64.07
24762;BME280;12865;51.934;10.330;2022-07-03T01:09:03;99336.66;;;19.31;64.18
24762;BME280;12865;51.934;10.330;2022-07-03T01:15:37;99332.69;;;19.27;64.27
24762;BME280;12865;51.934;10.330;2022-07-03T01:18:44;99326.28;;;19.35;64.55
24762;BME280;12865;51.934;10.330;2022-07-03T01:21:53;99327.91;;;19.29;64.78
24762;BME280;12865;51.934;10.330;2022-07-03T01:24:55;99321.03;;;19.27;64.74
24762;BME280;12865;51.934;10.330;2022-07-03T01:27:57;99330.22;;;19.11;65.56
24762;BME280;12865;51.934;10.330;2022-07-03T01:30:49;99322.50;;;19.08;65.76
24762;BME280;12865;51.934;10.330;2022-07-03T01:33:35;99324.06;;;19.17;65.38
24762;BME280;12865;51.934;10.330;2022-07-03T01:36:24;99318.41;;;19.12;65.54
24762;BME280;12865;51.934;10.330;2022-07-03T01:39:11;99315.94;;;19.17;64.86
24762;BME280;12865;51.934;10.330;2022-07-03T01:41:59;99315.88;;;19.10;65.35
24762;BME280;12865;51.934;10.330;2022-07-03T01:44:48;99316.31;;;19.14;65.01
24762;BME280;12865;51.934;10.330;2022-07-03T01:47:38;99316.97;;;19.16;65.30
24762;BME280;12865;51.934;10.330;2022-07-03T01:50:26;99302.31;;;19.25;64.95
24762;BME280;12865;51.934;10.330;2022-07-03T01:53:14;99305.31;;;19.15;64.85
24762;BME280;12865;51.934;10.330;2022-07-03T01:56:02;99305.38;;;19.22;64.39
24762;BME280;12865;51.934;10.330;2022-07-03T01:58:48;99305.38;;;19.22;64.67
24762;BME280;12865;51.934;10.330;2022-07-03T02:01:58;99302.44;;;19.17;64.99
24762;BME280;12865;51.934;10.330;2022-07-03T02:05:25;99294.50;;;19.15;65.10
24762;BME280;12865;51.934;10.330;2022-07-03T02:11:13;99295.41;;;19.01;66.09
24762;BME280;12865;51.934;10.330;2022-07-03T02:14:19;99296.25;;;19.02;66.34
24762;BME280;12865;51.934;10.330;2022-07-03T02:17:13;99298.75;;;19.03;66.56
24762;BME280;12865;51.934;10.330;2022-07-03T02:20:03;99296.06;;;19.03;66.37
24762;BME280;12865;51.934;10.330;2022-07-03T02:22:59;99300.47;;;18.90;66.50
24762;BME280;12865;51.934;10.330;2022-07-03T02:25:46;99296.75;;;18.91;66.40
24762;BME280;12865;51.934;10.330;2022-07-03T02:28:56;99300.72;;;18.95;66.16
24762;BME280;12865;51.934;10.330;2022-07-03T02:31:45;99292.81;;;18.93;66.11
24762;BME280;12865;51.934;10.330;2022-07-03T02:34:32;99291.72;;;18.88;65.96
24762;BME280;12865;51.934;10.330;2022-07-03T02:37:22;99292.63;;;18.95;65.79
24762;BME280;12865;51.934;10.330;2022-07-03T02:40:28;99289.66;;;18.90;65.85
24762;BME280;12865;51.934;10.330;2022-07-03T02:43:23;99291.34;;;18.91;66.18
24762;BME280;12865;51.934;10.330;2022-07-03T02:46:21;99288.75;;;18.82;66.77
24762;BME280;12865;51.934;10.330;2022-07-03T03:04:26;99285.34;;;18.74;66.90
24762;BME280;12865;51.934;10.330;2022-07-03T03:07:16;99277.75;;;18.63;67.51
24762;BME280;12865;51.934;10.330;2022-07-03T03:10:02;99288.63;;;18.69;66.97
24762;BME280;12865;51.934;10.330;2022-07-03T03:12:54;99286.19;;;18.60;67.41
24762;BME280;12865;51.934;10.330;2022-07-03T03:15:52;99283.06;;;18.56;67.56
24762;BME280;12865;51.934;10.330;2022-07-03T03:18:41;99279.19;;;18.65;67.11
24762;BME280;12865;51.934;10.330;2022-07-03T03:21:31;99275.13;;;18.69;66.68
24762;BME280;12865;51.934;10.330;2022-07-03T03:24:18;99279.66;;;18.69;66.29
24762;BME280;12865;51.934;10.330;2022-07-03T03:27:04;99280.69;;;18.68;66.44
24762;BME280;12865;51.934;10.330;2022-07-03T03:29:50;99277.53;;;18.64;66.83
24762;BME280;12865;51.934;10.330;2022-07-03T03:32:38;99288.72;;;18.61;67.31
24762;BME280;12865;51.934;10.330;2022-07-03T03:35:23;99283.31;;;18.61;67.55
24762;BME280;12865;51.934;10.330;2022-07-03T03:38:10;99276.50;;;18.65;67.37
24762;BME280;12865;51.934;10.330;2022-07-03T03:40:57;99279.50;;;18.70;66.45
24762;BME280;12865;51.934;10.330;2022-07-03T03:43:43;99279.19;;;18.65;66.63
24762;BME280;12865;51.934;10.330;2022-07-03T03:46:29;99280.22;;;18.64;67.03
24762;BME280;12865;51.934;10.330;2022-07-03T03:49:15;99282.56;;;18.67;66.75
24762;BME280;12865;51.934;10.330;2022-07-03T03:52:01;99282.13;;;18.64;66.82
24762;BME280;12865;51.934;10.330;2022-07-03T03:54:47;99282.56;;;18.67;66.47
24762;BME280;12865;51.934;10.330;2022-07-03T03:57:32;99276.50;;;18.65;66.64
24762;BME280;12865;51.934;10.330;2022-07-03T04:00:20;99278.19;;;18.66;66.18
24762;BME280;12865;51.934;10.330;2022-07-03T04:03:05;99275.00;;;18.77;65.56
24762;BME280;12865;51.934;10.330;2022-07-03T04:05:51;99270.22;;;18.79;65.20
24762;BME280;12865;51.934;10.330;2022-07-03T04:08:37;99278.41;;;18.86;64.69
24762;BME280;12865;51.934;10.330;2022-07-03T04:11:23;99274.75;;;18.94;64.00
24762;BME280;12865;51.934;10.330;2022-07-03T04:14:09;99268.97;;;18.97;64.18
24762;BME280;12865;51.934;10.330;2022-07-03T04:16:54;99265.72;;;19.08;63.98
24762;BME280;12865;51.934;10.330;2022-07-03T04:19:40;99267.94;;;19.19;63.14
24762;BME280;12865;51.934;10.330;2022-07-03T04:22:26;99262.59;;;19.26;63.47
24762;BME280;12865;51.934;10.330;2022-07-03T04:25:12;99261.88;;;19.38;62.44
24762;BME280;12865;51.934;10.330;2022-07-03T04:27:58;99255.25;;;19.41;62.70
24762;BME280;12865;51.934;10.330;2022-07-03T04:30:44;99252.31;;;19.42;63.05
24762;BME280;12865;51.934;10.330;2022-07-03T04:33:29;99255.66;;;19.44;63.04
24762;BME280;12865;51.934;10.330;2022-07-03T04:36:16;99249.09;;;19.47;63.35
24762;BME280;12865;51.934;10.330;2022-07-03T04:39:02;99250.59;;;19.56;62.71
24762;BME280;12865;51.934;10.330;2022-07-03T04:41:47;99246.91;;;19.64;62.65
24762;BME280;12865;51.934;10.330;2022-07-03T04:44:33;99249.06;;;19.75;62.39
24762;BME280;12865;51.934;10.330;2022-07-03T04:47:19;99250.78;;;19.82;62.33
24762;BME280;12865;51.934;10.330;2022-07-03T04:50:06;99253.56;;;19.95;61.50
24762;BME280;12865;51.934;10.330;2022-07-03T04:52:52;99251.97;;;20.08;61.80
24762;BME280;12865;51.934;10.330;2022-07-03T04:55:38;99241.25;;;20.27;60.06
24762;BME280;12865;51.934;10.330;2022-07-03T04:58:23;99252.41;;;20.46;59.32
24762;BME280;12865;51.934;10.330;2022-07-03T05:01:09;99250.59;;;20.59;58.91
24762;BME280;12865;51.934;10.330;2022-07-03T05:03:55;99251.84;;;20.63;59.83
24762;BME280;12865;51.934;10.330;2022-07-03T05:06:40;99262.31;;;20.80;58.22
24762;BME280;12865;51.934;10.330;2022-07-03T05:09:26;99259.44;;;20.94;58.08
24762;BME280;12865;51.934;10.330;2022-07-03T05:12:12;99257.41;;;21.16;57.44
24762;BME280;12865;51.934;10.330;2022-07-03T05:14:58;99256.78;;;21.27;55.31
24762;BME280;12865;51.934;10.330;2022-07-03T05:17:43;99255.13;;;21.46;54.98
24762;BME280;12865;51.934;10.330;2022-07-03T05:20:29;99255.75;;;21.54;54.71
24762;BME280;12865;51.934;10.330;2022-07-03T05:23:15;99258.25;;;21.63;54.46
24762;BME280;12865;51.934;10.330;2022-07-03T05:26:01;99260.97;;;21.76;54.99
24762;BME280;12865;51.934;10.330;2022-07-03T05:28:47;99254.25;;;21.91;54.39
24762;BME280;12865;51.934;10.330;2022-07-03T05:31:32;99250.06;;;22.09;55.05
24762;BME280;12865;51.934;10.330;2022-07-03T05:34:18;99252.97;;;22.20;53.20
24762;BME280;12865;51.934;10.330;2022-07-03T05:37:04;99252.47;;;22.37;52.99
24762;BME280;12865;51.934;10.330;2022-07-03T05:39:49;99258.94;;;22.49;52.01
24762;BME280;12865;51.934;10.330;2022-07-03T05:42:35;99251.72;;;22.67;51.50
24762;BME280;12865;51.934;10.330;2022-07-03T05:45:21;99252.50;;;22.81;51.47
24762;BME280;12865;51.934;10.330;2022-07-03T05:48:07;99253.22;;;23.01;50.69
24762;BME280;12865;51.934;10.330;2022-07-03T05:50:52;99248.94;;;23.19;49.67
24762;BME280;12865;51.934;10.330;2022-07-03T05:53:38;99252.81;;;23.29;49.57
24762;BME280;12865;51.934;10.330;2022-07-03T05:56:24;99255.66;;;23.47;47.71
24762;BME280;12865;51.934;10.330;2022-07-03T05:59:10;99252.75;;;23.67;46.88
24762;BME280;12865;51.934;10.330;2022-07-03T06:01:55;99252.16;;;23.83;47.62
24762;BME280;12865;51.934;10.330;2022-07-03T06:04:41;99252.84;;;23.97;46.38
24762;BME280;12865;51.934;10.330;2022-07-03T06:07:27;99254.16;;;24.13;45.50
24762;BME280;12865;51.934;10.330;2022-07-03T06:10:13;99257.47;;;24.21;44.83
24762;BME280;12865;51.934;10.330;2022-07-03T06:12:58;99255.34;;;24.42;44.94
24762;BME280;12865;51.934;10.330;2022-07-03T06:15:44;99244.66;;;24.58;45.07
24762;BME280;12865;51.934;10.330;2022-07-03T06:18:30;99257.13;;;24.66;43.67
24762;BME280;12865;51.934;10.330;2022-07-03T06:21:16;99260.53;;;24.80;42.59
24762;BME280;12865;51.934;10.330;2022-07-03T06:24:02;99253.13;;;24.98;43.21
24762;BME280;12865;51.934;10.330;2022-07-03T06:26:47;99253.91;;;25.17;42.60
24762;BME280;12865;51.934;10.330;2022-07-03T06:29:33;99256.41;;;25.19;43.26
24762;BME280;12865;51.934;10.330;2022-07-03T06:32:19;99245.16;;;25.38;42.66
24762;BME280;12865;51.934;10.330;2022-07-03T06:35:05;99248.78;;;25.51;42.89
24762;BME280;12865;51.934;10.330;2022-07-03T06:37:51;99242.97;;;25.59;41.65
24762;BME280;12865;51.934;10.330;2022-07-03T06:40:37;99246.28;;;25.72;40.86
24762;BME280;12865;51.934;10.330;2022-07-03T06:43:22;99249.75;;;25.79;41.95
24762;BME280;12865;51.934;10.330;2022-07-03T06:46:08;99253.44;;;25.97;40.52
24762;BME280;12865;51.934;10.330;2022-07-03T06:48:54;99252.56;;;26.08;41.09
24762;BME280;12865;51.934;10.330;2022-07-03T06:51:39;99243.66;;;26.24;41.69
24762;BME280;12865;51.934;10.330;2022-07-03T06:54:25;99246.50;;;26.41;40.65
24762;BME280;12865;51.934;10.330;2022-07-03T06:57:11;99247.91;;;26.43;40.30
24762;BME280;12865;51.934;10.330;2022-07-03T06:59:57;99247.13;;;26.31;39.61
24762;BME280;12865;51.934;10.330;2022-07-03T07:02:43;99245.84;;;26.62;39.74
24762;BME280;12865;51.934;10.330;2022-07-03T07:05:29;99251.88;;;26.76;39.82
24762;BME280;12865;51.934;10.330;2022-07-03T07:08:14;99251.00;;;26.47;39.13
24762;BME280;12865;51.934;10.330;2022-07-03T07:11:00;99245.53;;;26.47;38.67
24762;BME280;12865;51.934;10.330;2022-07-03T07:13:46;99248.31;;;26.64;40.11
24762;BME280;12865;51.934;10.330;2022-07-03T07:16:32;99257.78;;;26.44;38.89
24762;BME280;12865;51.934;10.330;2022-07-03T07:19:17;99259.03;;;26.13;39.30
24762;BME280;12865;51.934;10.330;2022-07-03T07:22:03;99259.06;;;26.53;38.75
24762;BME280;12865;51.934;10.330;2022-07-03T07:24:49;99261.91;;;26.70;38.00
24762;BME280;12865;51.934;10.330;2022-07-03T07:27:34;99272.44;;;26.90;37.89
24762;BME280;12865;51.934;10.330;2022-07-03T07:30:20;99262.66;;;26.42;38.66
24762;BME280;12865;51.934;10.330;2022-07-03T07:33:07;99268.34;;;26.52;38.62
24762;BME280;12865;51.934;10.330;2022-07-03T07:35:53;99265.13;;;26.95;38.40
24762;BME280;12865;51.934;10.330;2022-07-03T07:38:38;99265.22;;;27.01;38.70
24762;BME280;12865;51.934;10.330;2022-07-03T07:41:24;99262.16;;;27.25;38.18
24762;BME280;12865;51.934;10.330;2022-07-03T07:44:10;99256.13;;;26.83;37.92
24762;BME280;12865;51.934;10.330;2022-07-03T07:46:56;99264.91;;;26.97;37.68
24762;BME280;12865;51.934;10.330;2022-07-03T07:49:41;99260.66;;;26.78;38.14
24762;BME280;12865;51.934;10.330;2022-07-03T07:52:27;99263.00;;;26.86;37.69
24762;BME280;12865;51.934;10.330;2022-07-03T07:55:13;99257.47;;;27.09;37.60
24762;BME280;12865;51.934;10.330;2022-07-03T07:57:58;99265.88;;;26.91;37.85
24762;BME280;12865;51.934;10.330;2022-07-03T08:00:44;99262.47;;;27.12;37.26
24762;BME280;12865;51.934;10.330;2022-07-03T08:03:48;99257.38;;;27.04;37.68
24762;BME280;12865;51.934;10.330;2022-07-03T08:06:53;99258.22;;;27.21;37.60
24762;BME280;12865;51.934;10.330;2022-07-03T08:09:38;99258.28;;;27.55;37.36
24762;BME280;12865;51.934;10.330;2022-07-03T08:12:24;99265.91;;;27.69;36.38
24762;BME280;12865;51.934;10.330;2022-07-03T08:15:10;99271.47;;;27.58;36.88
24762;BME280;12865;51.934;10.330;2022-07-03T08:17:55;99273.75;;;27.49;36.36
24762;BME280;12865;51.934;10.330;2022-07-03T08:20:41;99264.25;;;27.68;37.16
24762;BME280;12865;51.934;10.330;2022-07-03T08:23:27;99273.38;;;28.24;36.65
24762;BME280;12865;51.934;10.330;2022-07-03T08:26:12;99262.81;;;28.16;37.16
24762;BME280;12865;51.934;10.330;2022-07-03T08:28:58;99268.97;;;28.45;36.39
24762;BME280;12865;51.934;10.330;2022-07-03T08:31:44;99272.03;;;28.70;35.80
24762;BME280;12865;51.934;10.330;2022-07-03T08:34:30;99271.13;;;28.65;35.65
24762;BME280;12865;51.934;10.330;2022-07-03T08:37:15;99270.06;;;28.44;34.80
24762;BME280;12865;51.934;10.330;2022-07-03T08:40:02;99262.56;;;28.01;36.99
24762;BME280;12865;51.934;10.330;2022-07-03T08:42:52;99268.59;;;28.36;36.42
24762;BME280;12865;51.934;10.330;2022-07-03T08:45:39;99269.31;;;27.77;37.05
24762;BME280;12865;51.934;10.330;2022-07-03T08:48:27;99271.63;;;27.85;37.40
24762;BME280;12865;51.934;10.330;2022-07-03T08:51:13;99274.16;;;28.25;37.52
24762;BME280;12865;51.934;10.330;2022-07-03T08:54:00;99278.91;;;28.12;37.27
24762;BME280;12865;51.934;10.330;2022-07-03T08:56:49;99270.88;;;28.66;36.57
24762;BME280;12865;51.934;10.330;2022-07-03T08:59:37;99270.78;;;28.78;36.33
24762;BME280;12865;51.934;10.330;2022-07-03T09:02:23;99269.69;;;28.79;36.40
24762;BME280;12865;51.934;10.330;2022-07-03T09:05:11;99272.66;;;28.56;37.49
24762;BME280;12865;51.934;10.330;2022-07-03T09:07:59;99276.50;;;28.55;36.65
24762;BME280;12865;51.934;10.330;2022-07-03T09:10:45;99283.22;;;28.85;37.53
24762;BME280;12865;51.934;10.330;2022-07-03T09:13:31;99275.50;;;29.09;36.47
24762;BME280;12865;51.934;10.330;2022-07-03T09:16:17;99274.06;;;29.55;37.00
24762;BME280;12865;51.934;10.330;2022-07-03T09:19:03;99270.00;;;29.95;35.71
24762;BME280;12865;51.934;10.330;2022-07-03T09:21:50;99264.94;;;29.87;34.08
24762;BME280;12865;51.934;10.330;2022-07-03T09:24:35;99266.84;;;28.74;36.04
24762;BME280;12865;51.934;10.330;2022-07-03T09:27:22;99277.09;;;28.01;36.92
24762;BME280;12865;51.934;10.330;2022-07-03T09:30:09;99270.31;;;28.64;36.41
24762;BME280;12865;51.934;10.330;2022-07-03T09:32:55;99266.16;;;28.62;35.24
24762;BME280;12865;51.934;10.330;2022-07-03T09:35:41;99262.56;;;28.39;36.58
24762;BME280;12865;51.934;10.330;2022-07-03T09:38:27;99256.31;;;28.22;36.87
24762;BME280;12865;51.934;10.330;2022-07-03T09:41:13;99262.13;;;28.69;36.69
24762;BME280;12865;51.934;10.330;2022-07-03T09:43:58;99259.53;;;28.58;36.13
24762;BME280;12865;51.934;10.330;2022-07-03T09:46:44;99258.44;;;28.59;36.25
24762;BME280;12865;51.934;10.330;2022-07-03T09:49:53;99262.63;;;28.88;36.57
24762;BME280;12865;51.934;10.330;2022-07-03T10:00:41;99261.22;;;29.66;35.68
24762;BME280;12865;51.934;10.330;2022-07-03T10:03:27;99266.22;;;28.88;35.63
24762;BME280;12865;51.934;10.330;2022-07-03T10:06:12;99268.66;;;28.63;36.53
24762;BME280;12865;51.934;10.330;2022-07-03T10:08:58;99265.72;;;28.70;36.01
24762;BME280;12865;51.934;10.330;2022-07-03T10:11:44;99264.63;;;28.71;37.08
24762;BME280;12865;51.934;10.330;2022-07-03T10:14:31;99258.03;;;29.42;35.88
24762;BME280;12865;51.934;10.330;2022-07-03T10:17:17;99267.25;;;29.63;35.43
24762;BME280;12865;51.934;10.330;2022-07-03T10:20:03;99267.63;;;29.45;34.67
24762;BME280;12865;51.934;10.330;2022-07-03T10:22:49;99261.53;;;29.38;36.29
24762;BME280;12865;51.934;10.330;2022-07-03T10:25:35;99259.50;;;29.92;35.40
24762;BME280;12865;51.934;10.330;2022-07-03T10:28:22;99257.66;;;30.02;34.86
24762;BME280;12865;51.934;10.330;2022-07-03T10:31:08;99270.34;;;30.51;35.40
24762;BME280;12865;51.934;10.330;2022-07-03T10:33:56;99253.88;;;30.56;35.03
24762;BME280;12865;51.934;10.330;2022-07-03T10:36:43;99254.78;;;30.29;34.06
24762;BME280;12865;51.934;10.330;2022-07-03T10:42:34;99254.41;;;30.05;34.69
24762;BME280;12865;51.934;10.330;2022-07-03T10:49:08;99248.75;;;29.53;35.10
24762;BME280;12865;51.934;10.330;2022-07-03T10:52:03;99258.22;;;29.36;35.61
24762;BME280;12865;51.934;10.330;2022-07-03T10:54:49;99253.88;;;29.72;35.43
24762;BME280;12865;51.934;10.330;2022-07-03T10:57:37;99241.53;;;30.21;34.81
24762;BME280;12865;51.934;10.330;2022-07-03T11:00:23;99244.50;;;30.04;33.56
24762;BME280;12865;51.934;10.330;2022-07-03T11:03:08;99249.38;;;30.44;33.49
24762;BME280;12865;51.934;10.330;2022-07-03T11:05:54;99244.94;;;30.43;33.78
24762;BME280;12865;51.934;10.330;2022-07-03T11:09:01;99243.38;;;30.53;32.84
24762;BME280;12865;51.934;10.330;2022-07-03T11:11:47;99236.03;;;30.78;33.67
24762;BME280;12865;51.934;10.330;2022-07-03T11:14:43;99229.84;;;31.44;32.62
24762;BME280;12865;51.934;10.330;2022-07-03T11:17:29;99233.00;;;30.75;32.10
24762;BME280;12865;51.934;10.330;2022-07-03T11:20:25;99231.69;;;30.25;32.39
24762;BME280;12865;51.934;10.330;2022-07-03T11:28:54;99229.28;;;31.72;31.61
24762;BME280;12865;51.934;10.330;2022-07-03T11:31:40;99229.69;;;30.68;31.87
24762;BME280;12865;51.934;10.330;2022-07-03T11:34:26;99232.69;;;30.61;31.78
24762;BME280;12865;51.934;10.330;2022-07-03T11:37:19;99231.59;;;30.10;32.36
24762;BME280;12865;51.934;10.330;2022-07-03T11:40:05;99226.25;;;29.93;33.17
24762;BME280;12865;51.934;10.330;2022-07-03T11:42:51;99223.00;;;30.01;32.92
24762;BME280;12865;51.934;10.330;2022-07-03T11:45:38;99218.97;;;30.87;32.47
24762;BME280;12865;51.934;10.330;2022-07-03T11:48:26;99227.34;;;31.32;31.04
24762;BME280;12865;51.934;10.330;2022-07-03T11:51:12;99222.13;;;31.31;30.45
24762;BME280;12865;51.934;10.330;2022-07-03T11:53:59;99219.34;;;31.36;32.04
24762;BME280;12865;51.934;10.330;2022-07-03T11:56:45;99225.84;;;30.69;30.20
24762;BME280;12865;51.934;10.330;2022-07-03T11:59:31;99215.09;;;30.72;30.68
24762;BME280;12865;51.934;10.330;2022-07-03T12:02:17;99218.75;;;31.03;30.82
24762;BME280;12865;51.934;10.330;2022-07-03T12:05:13;99223.75;;;31.42;30.63
24762;BME280;12865;51.934;10.330;2022-07-03T12:08:09;99214.13;;;31.49;29.13
24762;BME280;12865;51.934;10.330;2022-07-03T12:11:01;99207.78;;;31.39;29.70
24762;BME280;12865;51.934;10.330;2022-07-03T12:13:47;99201.63;;;30.76;31.80
24762;BME280;12865;51.934;10.330;2022-07-03T12:16:34;99217.34;;;30.91;31.42
24762;BME280;12865;51.934;10.330;2022-07-03T12:19:20;99206.91;;;30.20;32.29
24762;BME280;12865;51.934;10.330;2022-07-03T12:22:05;99213.97;;;30.06;32.96
24762;BME280;12865;51.934;10.330;2022-07-03T12:25:08;99212.16;;;30.27;32.61
24762;BME280;12865;51.934;10.330;2022-07-03T12:27:54;99207.50;;;30.27;33.20
24762;BME280;12865;51.934;10.330;2022-07-03T12:30:40;99210.81;;;30.34;32.87
24762;BME280;12865;51.934;10.330;2022-07-03T12:33:26;99211.00;;;30.80;32.93
24762;BME280;12865;51.934;10.330;2022-07-03T12:36:11;99213.50;;;30.97;32.07
24762;BME280;12865;51.934;10.330;2022-07-03T12:38:58;99201.66;;;31.01;31.93
24762;BME280;12865;51.934;10.330;2022-07-03T12:41:45;99199.34;;;30.58;31.38
24762;BME280;12865;51.934;10.330;2022-07-03T12:44:31;99197.84;;;31.12;31.60
24762;BME280;12865;51.934;10.330;2022-07-03T12:47:16;99187.66;;;31.33;30.18
24762;BME280;12865;51.934;10.330;2022-07-03T12:50:06;99190.13;;;31.04;30.51
24762;BME280;12865;51.934;10.330;2022-07-03T12:52:55;99187.03;;;30.75;31.16
24762;BME280;12865;51.934;10.330;2022-07-03T12:55:44;99182.28;;;30.51;31.64
24762;BME280;12865;51.934;10.330;2022-07-03T12:58:30;99178.03;;;29.81;32.68
24762;BME280;12865;51.934;10.330;2022-07-03T13:01:37;99178.69;;;29.93;33.61
24762;BME280;12865;51.934;10.330;2022-07-03T13:04:33;99173.84;;;30.10;32.16
24762;BME280;12865;51.934;10.330;2022-07-03T13:07:19;99168.81;;;30.64;31.65
24762;BME280;12865;51.934;10.330;2022-07-03T13:10:05;99158.41;;;30.81;32.04
24762;BME280;12865;51.934;10.330;2022-07-03T13:12:56;99170.53;;;29.66;32.96
24762;BME280;12865;51.934;10.330;2022-07-03T13:15:42;99158.69;;;29.60;33.23
24762;BME280;12865;51.934;10.330;2022-07-03T13:18:28;99167.94;;;29.17;34.24
24762;BME280;12865;51.934;10.330;2022-07-03T13:21:14;99168.13;;;29.38;34.01
24762;BME280;12865;51.934;10.330;2022-07-03T13:24:00;99166.66;;;29.62;34.57
24762;BME280;12865;51.934;10.330;2022-07-03T13:26:46;99170.56;;;29.71;33.84
24762;BME280;12865;51.934;10.330;2022-07-03T13:29:32;99160.63;;;29.65;32.58
24762;BME280;12865;51.934;10.330;2022-07-03T13:32:18;99157.97;;;29.80;33.48
24762;BME280;12865;51.934;10.330;2022-07-03T13:35:05;99157.06;;;29.64;33.01
24762;BME280;12865;51.934;10.330;2022-07-03T13:37:51;99153.31;;;29.86;33.37
24762;BME280;12865;51.934;10.330;2022-07-03T13:40:36;99153.41;;;30.58;32.76
24762;BME280;12865;51.934;10.330;2022-07-03T13:43:25;99154.81;;;30.76;31.15
24762;BME280;12865;51.934;10.330;2022-07-03T13:46:10;99152.63;;;30.83;31.34
24762;BME280;12865;51.934;10.330;2022-07-03T13:48:56;99142.44;;;30.89;31.14
24762;BME280;12865;51.934;10.330;2022-07-03T13:51:42;99155.66;;;30.87;31.26
24762;BME280;12865;51.934;10.330;2022-07-03T13:54:28;99140.50;;;30.74;30.75
24762;BME280;12865;51.934;10.330;2022-07-03T13:57:14;99149.97;;;30.26;32.85
24762;BME280;12865;51.934;10.330;2022-07-03T13:59:59;99143.06;;;30.18;33.45
24762;BME280;12865;51.934;10.330;2022-07-03T14:02:45;99150.25;;;30.29;32.75
24762;BME280;12865;51.934;10.330;2022-07-03T14:05:31;99147.91;;;30.63;32.55
24762;BME280;12865;51.934;10.330;2022-07-03T14:08:20;99139.81;;;30.36;32.51
24762;BME280;12865;51.934;10.330;2022-07-03T14:11:06;99130.03;;;30.61;32.73
24762;BME280;12865;51.934;10.330;2022-07-03T14:13:52;99135.63;;;30.14;32.98
24762;BME280;12865;51.934;10.330;2022-07-03T14:16:38;99140.06;;;30.25;32.94
24762;BME280;12865;51.934;10.330;2022-07-03T14:19:30;99133.53;;;30.41;33.01
24762;BME280;12865;51.934;10.330;2022-07-03T14:22:15;99136.94;;;30.83;32.80
24762;BME280;12865;51.934;10.330;2022-07-03T14:25:02;99125.09;;;31.03;32.35
24762;BME280;12865;51.934;10.330;2022-07-03T14:27:48;99126.91;;;30.42;32.81
24762;BME280;12865;51.934;10.330;2022-07-03T14:30:52;99125.81;;;30.38;33.56
24762;BME280;12865;51.934;10.330;2022-07-03T14:33:56;99123.94;;;30.54;33.39
24762;BME280;12865;51.934;10.330;2022-07-03T14:36:42;99128.94;;;30.72;32.51
24762;BME280;12865;51.934;10.330;2022-07-03T14:39:27;99128.81;;;30.31;34.01
24762;BME280;12865;51.934;10.330;2022-07-03T14:42:13;99134.06;;;30.43;33.54
24762;BME280;12865;51.934;10.330;2022-07-03T14:44:59;99116.78;;;30.53;33.64
24762;BME280;12865;51.934;10.330;2022-07-03T14:47:45;99115.72;;;30.69;33.01
24762;BME280;12865;51.934;10.330;2022-07-03T14:50:30;99111.59;;;30.76;32.93
24762;BME280;12865;51.934;10.330;2022-07-03T14:53:17;99109.88;;;30.45;33.61
24762;BME280;12865;51.934;10.330;2022-07-03T14:56:03;99115.00;;;30.11;33.92
24762;BME280;12865;51.934;10.330;2022-07-03T14:58:49;99113.09;;;30.22;32.88
24762;BME280;12865;51.934;10.330;2022-07-03T15:01:36;99120.00;;;30.29;32.63
24762;BME280;12865;51.934;10.330;2022-07-03T15:07:27;99130.53;;;29.90;33.70
24762;BME280;12865;51.934;10.330;2022-07-03T15:10:14;99117.31;;;30.50;33.13
24762;BME280;12865;51.934;10.330;2022-07-03T15:13:03;99117.25;;;30.29;33.83
24762;BME280;12865;51.934;10.330;2022-07-03T15:15:50;99123.88;;;30.33;34.18
24762;BME280;12865;51.934;10.330;2022-07-03T15:18:37;99111.09;;;30.02;34.46
24762;BME280;12865;51.934;10.330;2022-07-03T15:21:25;99111.34;;;30.00;35.03
24762;BME280;12865;51.934;10.330;2022-07-03T15:24:13;99114.44;;;30.09;34.90